Terminal Aerodrome Forecast
Issued by NWS Pendleton, OR

Home | Current Version | Previous Version | Text Only | Print | Product List | Glossary On
Versions: 1 2 3 4 5 6 7 8 9 10 11 12 13 14
215
FTUS46 KPDT 251720
TAFPDT
TAF
KPDT 251720Z 2518/2618 27012G20KT P6SM FEW060
     FM252100 29015G25KT P6SM SCT060
     FM260600 25009KT P6SM SKC
     FM261500 25015G25KT P6SM FEW200=

USA.gov is the U.S. government's official web portal to all federal, state and local government web resources and services.